Time;durP1;ratioP1;P1;durP2;ratioP2;P2;SDS_P1;SDS_P2;PMS_P1;PMS_P2;Temp;Humidity;BMP_temperature;BMP_pressure;BME280_temperature;BME280_humidity;BME280_pressure;Samples;Min_cycle;Max_cycle;Signal;HPM_P1;HPM_P2
2021/05/05 00:02:34;;;;;;;8.20;7.00;;;6.20;99.90;;;;;;5116356;28;20562;-83
2021/05/05 00:05:09;;;;;;;8.17;6.63;;;6.10;99.90;;;;;;5116194;28;20836;-83
2021/05/05 00:07:39;;;;;;;7.90;5.13;;;6.10;99.90;;;;;;5113922;28;20473;-83
2021/05/05 00:10:18;;;;;;;8.33;4.20;;;6.20;99.90;;;;;;5095678;28;20541;-83
2021/05/05 00:13:01;;;;;;;8.10;3.90;;;6.10;99.90;;;;;;5115380;28;20472;-82
2021/05/05 00:15:29;;;;;;;8.73;4.63;;;6.20;99.90;;;;;;5115788;28;20451;-83
2021/05/05 00:18:01;;;;;;;9.27;3.97;;;6.00;99.90;;;;;;5115333;28;20477;-83
2021/05/05 00:20:31;;;;;;;13.20;4.80;;;6.10;99.90;;;;;;5115483;28;20466;-83
2021/05/05 00:22:59;;;;;;;7.90;4.53;;;6.10;99.90;;;;;;5114359;28;20494;-83
2021/05/05 00:25:25;;;;;;;9.70;4.73;;;6.00;99.90;;;;;;5115425;28;20990;-83
2021/05/05 00:27:56;;;;;;;7.77;3.80;;;5.90;99.90;;;;;;5115278;28;20530;-83
2021/05/05 00:30:27;;;;;;;7.80;3.73;;;5.90;99.90;;;;;;5115647;28;20514;-83
2021/05/05 00:32:54;;;;;;;7.10;3.43;;;5.80;99.90;;;;;;5115497;28;20964;-83
2021/05/05 00:35:24;;;;;;;8.07;3.57;;;5.90;99.90;;;;;;5115322;28;20943;-82
2021/05/05 00:37:51;;;;;;;11.60;4.73;;;5.90;99.90;;;;;;5114439;28;20453;-83
2021/05/05 00:40:18;;;;;;;7.30;4.10;;;5.80;99.90;;;;;;5115360;28;20456;-82
2021/05/05 00:42:45;;;;;;;8.30;3.80;;;5.70;99.90;;;;;;5115837;28;20900;-83
2021/05/05 00:45:14;;;;;;;10.33;5.13;;;5.60;99.90;;;;;;5114817;28;20598;-83
2021/05/05 00:47:43;;;;;;;12.33;5.00;;;5.50;99.90;;;;;;5115415;28;20485;-82
2021/05/05 00:50:12;;;;;;;8.90;5.87;;;5.40;99.90;;;;;;5115188;28;20460;-82
2021/05/05 00:52:40;;;;;;;12.60;5.97;;;5.30;99.90;;;;;;5114008;28;20471;-83
2021/05/05 00:55:12;;;;;;;9.30;7.73;;;5.20;99.90;;;;;;5115264;28;20844;-83
2021/05/05 00:57:42;;;;;;;11.00;10.00;;;5.10;99.90;;;;;;5115053;28;20460;-82
2021/05/05 01:00:11;;;;;;;13.00;11.90;;;5.10;99.90;;;;;;5114791;28;20519;-82
2021/05/05 01:02:38;;;;;;;15.43;14.17;;;5.10;99.90;;;;;;5115179;28;20539;-82
2021/05/05 01:05:06;;;;;;;16.43;15.10;;;5.10;99.90;;;;;;5114408;28;21552;-82
2021/05/05 01:07:33;;;;;;;15.33;14.13;;;5.00;99.90;;;;;;5113387;28;20456;-82
2021/05/05 01:10:01;;;;;;;15.53;14.13;;;5.10;99.90;;;;;;5114647;28;20946;-82
2021/05/05 01:12:29;;;;;;;15.43;14.13;;;5.00;99.90;;;;;;5114675;28;20457;-83
2021/05/05 01:15:00;;;;;;;18.37;16.77;;;5.00;99.90;;;;;;5114518;28;20467;-82
2021/05/05 01:17:27;;;;;;;17.67;16.47;;;5.00;99.90;;;;;;5114926;28;20452;-82
2021/05/05 01:19:54;;;;;;;19.60;18.30;;;5.00;99.90;;;;;;5114577;28;20953;-82
2021/05/05 01:22:21;;;;;;;20.70;19.10;;;5.00;99.90;;;;;;5113899;28;20531;-82
2021/05/05 01:24:48;;;;;;;17.10;15.90;;;5.10;99.90;;;;;;5114523;28;20485;-82
2021/05/05 01:27:18;;;;;;;17.43;16.20;;;5.20;99.90;;;;;;5114177;28;20941;-82
2021/05/05 01:29:47;;;;;;;17.00;15.77;;;5.20;99.90;;;;;;5113273;28;20521;-82
2021/05/05 01:32:14;;;;;;;16.00;14.47;;;5.30;99.90;;;;;;5114594;28;20455;-82
2021/05/05 01:34:42;;;;;;;11.43;10.43;;;5.50;99.90;;;;;;5114481;28;20951;-82
2021/05/05 01:37:09;;;;;;;13.20;11.27;;;5.50;99.90;;;;;;5112583;28;20488;-82
2021/05/05 01:39:37;;;;;;;12.00;9.63;;;5.50;99.90;;;;;;5114072;28;20457;-82
2021/05/05 01:42:04;;;;;;;8.50;7.07;;;5.60;99.90;;;;;;5116886;28;20471;-82
2021/05/05 01:44:36;;;;;;;8.70;6.90;;;5.60;99.90;;;;;;5113857;28;20468;-83
2021/05/05 01:47:07;;;;;;;11.00;6.33;;;5.70;99.90;;;;;;5114468;28;20452;-82
2021/05/05 01:49:34;;;;;;;8.30;5.00;;;5.80;99.90;;;;;;5113899;28;20786;-83
2021/05/05 01:52:04;;;;;;;13.50;5.10;;;5.90;99.90;;;;;;5112755;28;20561;-82
2021/05/05 01:54:31;;;;;;;8.97;4.23;;;6.00;99.90;;;;;;5113625;28;20449;-82
2021/05/05 01:57:31;;;;;;;8.47;4.07;;;6.10;99.90;;;;;;5113552;28;20446;-83
2021/05/05 02:00:02;;;;;;;7.77;3.97;;;6.00;99.90;;;;;;5113526;28;20444;-83
2021/05/05 02:02:29;;;;;;;9.20;4.00;;;5.80;99.90;;;;;;5113269;28;20540;-83
2021/05/05 02:04:56;;;;;;;13.27;5.20;;;5.70;99.90;;;;;;5113367;28;20461;-83
2021/05/05 02:07:24;;;;;;;18.10;8.27;;;5.60;99.90;;;;;;5112360;28;20818;-83
2021/05/05 02:09:51;;;;;;;8.83;6.33;;;5.50;99.90;;;;;;5113584;28;20453;-83
2021/05/05 02:12:18;;;;;;;9.30;6.10;;;5.50;99.90;;;;;;5113783;28;20526;-83
2021/05/05 02:14:50;;;;;;;9.57;8.53;;;5.40;99.90;;;;;;5113387;28;20456;-83
2021/05/05 02:17:33;;;;;;;9.50;8.47;;;5.30;99.90;;;;;;5113667;28;20452;-83
2021/05/05 02:20:03;;;;;;;11.40;10.40;;;5.40;99.90;;;;;;5113257;28;20460;-83
2021/05/05 02:22:29;;;;;;;13.27;12.10;;;5.10;99.90;;;;;;5112540;28;20503;-83
2021/05/05 02:24:57;;;;;;;17.93;14.57;;;5.10;99.90;;;;;;5113635;28;20902;-83
2021/05/05 02:27:27;;;;;;;26.20;16.40;;;5.00;99.90;;;;;;5112979;28;20459;-83
2021/05/05 02:29:57;;;;;;;16.43;14.80;;;5.00;99.90;;;;;;5113106;28;20449;-83
2021/05/05 02:32:25;;;;;;;20.87;19.47;;;5.00;99.90;;;;;;5113087;28;20445;-82
2021/05/05 02:34:56;;;;;;;22.73;21.23;;;4.90;99.90;;;;;;5112764;28;20445;-83
2021/05/05 02:37:23;;;;;;;19.40;17.90;;;5.00;99.90;;;;;;5112004;28;20457;-83
2021/05/05 02:39:54;;;;;;;20.80;19.40;;;5.10;99.90;;;;;;5112466;28;20468;-82
2021/05/05 02:42:21;;;;;;;18.97;17.50;;;5.10;99.90;;;;;;5093278;28;20955;-83
2021/05/05 02:44:49;;;;;;;17.00;15.53;;;5.20;99.90;;;;;;5099414;28;20823;-83
2021/05/05 02:47:17;;;;;;;15.77;14.57;;;5.20;99.90;;;;;;5112980;28;20934;-83
2021/05/05 02:49:44;;;;;;;17.43;16.03;;;5.20;99.90;;;;;;5113074;28;20531;-83
2021/05/05 02:52:10;;;;;;;14.73;13.53;;;5.20;99.90;;;;;;5112490;28;20559;-83
2021/05/05 02:54:38;;;;;;;18.20;16.70;;;5.10;99.90;;;;;;5112742;28;20463;-83
2021/05/05 02:57:13;;;;;;;17.63;14.53;;;5.10;99.90;;;;;;5112813;28;20497;-83
2021/05/05 02:59:40;;;;;;;18.83;17.53;;;5.10;99.90;;;;;;5113023;28;20499;-82
2021/05/05 03:02:06;;;;;;;16.23;14.93;;;5.10;99.90;;;;;;5115773;28;20535;-83
2021/05/05 03:04:48;;;;;;;15.37;14.17;;;5.20;99.90;;;;;;5112607;28;20447;-83
2021/05/05 03:07:14;;;;;;;16.20;14.70;;;5.30;99.90;;;;;;5111360;28;20452;-82
2021/05/05 03:09:40;;;;;;;16.40;15.10;;;5.30;99.90;;;;;;5112835;28;20851;-82
2021/05/05 03:12:08;;;;;;;16.70;15.30;;;5.30;99.90;;;;;;5113413;28;20451;-82
2021/05/05 03:14:35;;;;;;;12.80;11.70;;;5.20;99.90;;;;;;5112787;28;20498;-83
2021/05/05 03:17:01;;;;;;;12.93;10.83;;;5.30;99.90;;;;;;5112467;28;20452;-82
2021/05/05 03:19:28;;;;;;;13.40;12.10;;;5.40;99.90;;;;;;5112974;28;20451;-83
2021/05/05 03:21:55;;;;;;;14.07;12.60;;;5.30;99.90;;;;;;5111266;28;20954;-78
2021/05/05 03:24:21;;;;;;;24.40;13.47;;;5.20;99.90;;;;;;5112010;28;20445;-76
2021/05/05 03:26:51;;;;;;;19.07;17.47;;;5.10;99.90;;;;;;5112057;28;20454;-84
2021/05/05 03:29:22;;;;;;;19.27;17.87;;;5.00;99.90;;;;;;5112588;28;20530;-82
2021/05/05 03:31:48;;;;;;;22.63;20.37;;;5.00;99.90;;;;;;5112577;28;20783;-82
2021/05/05 03:34:15;;;;;;;23.50;21.90;;;4.90;99.90;;;;;;5111311;28;20452;-83
2021/05/05 03:36:44;;;;;;;25.20;23.13;;;4.80;99.90;;;;;;5111815;28;20461;-83
2021/05/05 03:39:14;;;;;;;23.97;22.53;;;4.90;99.90;;;;;;5112702;28;20855;-82
2021/05/05 03:41:41;;;;;;;26.80;25.00;;;5.00;99.90;;;;;;5111443;28;20465;-83
2021/05/05 03:44:10;;;;;;;26.53;24.83;;;5.00;99.90;;;;;;5112684;28;20476;-83
2021/05/05 03:50:09;;;;;;;;;;;;;;;;;;;;;
2021/05/05 03:52:39;;;;;;;27.30;25.67;;;4.90;99.90;;;;;;5088570;28;20442;-83
2021/05/05 03:55:08;;;;;;;30.00;27.90;;;4.90;99.90;;;;;;5098892;28;20447;-83
2021/05/05 03:57:35;;;;;;;27.07;25.43;;;4.90;99.90;;;;;;5116362;28;20455;-82
2021/05/05 04:00:01;;;;;;;26.10;24.50;;;5.00;99.90;;;;;;5116043;28;20862;-82
2021/05/05 04:02:27;;;;;;;24.10;22.50;;;5.00;99.90;;;;;;5116241;28;20947;-82
2021/05/05 04:04:56;;;;;;;21.90;20.13;;;5.10;99.90;;;;;;5115559;28;20855;-82
2021/05/05 04:07:23;;;;;;;22.73;21.07;;;5.10;99.90;;;;;;5114770;28;20468;-82
2021/05/05 04:09:51;;;;;;;22.80;20.67;;;5.10;99.90;;;;;;5116149;28;20460;-82
2021/05/05 04:12:29;;;;;;;23.93;22.33;;;5.10;99.90;;;;;;5116066;28;20971;-82
2021/05/05 04:14:56;;;;;;;23.93;22.20;;;5.00;99.90;;;;;;5115625;28;20456;-76
2021/05/05 04:17:57;;;;;;;24.77;23.20;;;5.00;99.90;;;;;;5115747;28;20451;-85
2021/05/05 04:20:33;;;;;;;29.33;26.93;;;5.00;99.90;;;;;;5045614;28;20462;-82
2021/05/05 04:23:01;;;;;;;25.20;23.57;;;5.10;99.90;;;;;;5113890;28;20448;-82
2021/05/05 04:25:28;;;;;;;37.57;19.30;;;5.20;99.90;;;;;;5095376;28;20998;-83
2021/05/05 04:27:55;;;;;;;18.97;17.17;;;5.40;99.90;;;;;;5111163;28;20535;-83
2021/05/05 04:30:25;;;;;;;17.10;15.60;;;5.50;99.90;;;;;;5115608;28;20453;-83
2021/05/05 04:32:52;;;;;;;15.10;13.40;;;5.60;99.90;;;;;;5115541;28;20498;-83
2021/05/05 04:35:26;;;;;;;17.63;13.10;;;5.70;99.90;;;;;;5115713;28;20444;-83
2021/05/05 04:37:55;;;;;;;13.70;10.30;;;5.80;99.90;;;;;;5114195;28;20445;-83
2021/05/05 04:40:25;;;;;;;13.70;7.37;;;5.90;99.90;;;;;;5115410;28;20813;-83
2021/05/05 04:43:06;;;;;;;9.77;7.30;;;6.00;99.90;;;;;;5115653;28;20860;-83
2021/05/05 04:45:46;;;;;;;;;;;;;;;;;;;;;
2021/05/05 04:48:12;;;;;;;9.63;6.27;;;6.10;99.90;;;;;;5109874;28;20928;-83
2021/05/05 04:50:41;;;;;;;17.10;7.40;;;6.10;99.90;;;;;;5115263;28;21236;-83
2021/05/05 04:53:08;;;;;;;10.50;6.27;;;6.10;99.90;;;;;;5114338;28;20471;-83
2021/05/05 04:55:35;;;;;;;8.83;4.70;;;6.20;99.90;;;;;;5114755;28;20441;-83
2021/05/05 04:58:01;;;;;;;9.20;5.30;;;6.20;99.90;;;;;;5115350;28;20465;-82
2021/05/05 05:00:30;;;;;;;9.00;5.50;;;6.20;99.90;;;;;;5114997;28;20537;-82
2021/05/05 05:02:59;;;;;;;11.50;7.23;;;6.20;99.90;;;;;;5115318;28;20810;-83
2021/05/05 05:05:27;;;;;;;10.07;5.90;;;6.30;99.90;;;;;;5114684;28;20480;-83
2021/05/05 05:07:54;;;;;;;18.33;6.43;;;6.30;99.90;;;;;;5113983;28;20453;-83
2021/05/05 05:10:22;;;;;;;12.23;5.83;;;6.30;99.90;;;;;;5114636;28;20449;-83
2021/05/05 05:13:00;;;;;;;9.83;5.43;;;6.40;99.90;;;;;;5114735;28;20453;-83
2021/05/05 05:16:14;;;;;;;9.47;4.10;;;6.50;99.90;;;;;;5114837;28;20462;-83
2021/05/05 05:18:53;;;;;;;18.33;4.80;;;6.50;99.90;;;;;;4992225;28;20489;-82
2021/05/05 05:21:20;;;;;;;20.00;6.20;;;6.50;99.90;;;;;;5006512;28;20487;-79
2021/05/05 05:26:45;;;;;;;;;;;;;;;;;;;;;
2021/05/05 05:29:12;;;;;;;10.67;2.93;;;6.70;99.90;;;;;;5096379;28;20795;-83
2021/05/05 05:32:13;;;;;;;13.73;3.40;;;6.80;99.90;;;;;;5114474;28;20947;-84
2021/05/05 05:34:57;;;;;;;10.40;4.37;;;7.20;96.90;;;;;;5109459;28;20451;-83
2021/05/05 05:37:40;;;;;;;;;;;;;;;;;;;;;
2021/05/05 05:40:32;;;;;;;13.30;2.90;;;7.30;93.00;;;;;;5101902;28;20966;-83
2021/05/05 05:43:25;;;;;;;12.63;4.40;;;7.40;92.60;;;;;;5114206;28;20976;-83
2021/05/05 05:46:21;;;;;;;9.50;2.70;;;7.50;92.10;;;;;;4991611;28;20577;-83
2021/05/05 05:52:32;;;;;;;19.20;4.37;;;7.90;82.10;;;;;;5093036;28;20465;-84
2021/05/05 05:55:43;;;;;;;;;;;;;;;;;;;;;
2021/05/05 05:58:29;;;;;;;11.27;2.67;;;8.30;71.60;;;;;;4879704;29;20517;-83
2021/05/05 06:01:22;;;;;;;24.83;4.20;;;8.50;62.80;;;;;;4891066;29;20458;-83
2021/05/05 06:04:10;;;;;;;21.80;3.20;;;8.50;66.00;;;;;;4850738;29;20471;-83
2021/05/05 06:06:41;;;;;;;10.93;2.70;;;8.20;65.00;;;;;;4844622;29;20541;-84
2021/05/05 07:09:37;;;;;;;9.97;2.10;;;9.50;31.60;;;;;;4819279;29;20464;-82
2021/05/05 07:46:42;;;;;;;9.50;2.33;;;7.90;47.10;;;;;;4992339;28;21085;-81
2021/05/05 07:49:11;;;;;;;8.30;1.93;;;7.70;60.00;;;;;;5009052;28;20516;-79
2021/05/05 07:51:39;;;;;;;8.10;2.00;;;7.10;96.10;;;;;;5053153;28;20486;-81
2021/05/05 07:54:05;;;;;;;8.77;2.27;;;6.80;99.90;;;;;;5054443;28;20466;-82
2021/05/05 07:56:33;;;;;;;8.03;1.87;;;6.30;99.90;;;;;;5054253;28;20453;-83
2021/05/05 07:59:06;;;;;;;7.80;1.80;;;6.00;99.90;;;;;;5054042;28;20493;-83
2021/05/05 08:01:37;;;;;;;7.80;1.93;;;6.00;99.90;;;;;;5054236;28;20449;-82
2021/05/05 08:04:08;;;;;;;11.17;3.13;;;6.10;99.90;;;;;;5054261;28;20451;-83
2021/05/05 08:06:41;;;;;;;7.80;2.10;;;6.20;99.90;;;;;;5052674;28;20572;-83
2021/05/05 08:09:10;;;;;;;7.90;2.47;;;6.20;99.90;;;;;;5054338;28;20797;-82
2021/05/05 08:11:36;;;;;;;8.93;2.90;;;6.30;99.90;;;;;;5054058;28;20547;-82
2021/05/05 08:14:06;;;;;;;7.60;2.20;;;6.20;99.90;;;;;;5053971;28;20542;-83
2021/05/05 08:16:32;;;;;;;8.00;2.57;;;6.20;99.90;;;;;;5054171;28;20454;-83
2021/05/05 08:18:59;;;;;;;8.60;2.40;;;6.10;99.90;;;;;;5053787;28;20451;-82
2021/05/05 08:21:26;;;;;;;7.00;1.53;;;6.30;99.90;;;;;;5052823;28;20464;-83
2021/05/05 08:24:02;;;;;;;7.53;1.90;;;6.30;99.90;;;;;;5053814;28;20471;-82
2021/05/05 08:26:37;;;;;;;7.20;1.77;;;6.40;99.90;;;;;;5053728;28;20986;-82
2021/05/05 08:29:04;;;;;;;8.03;3.50;;;6.40;99.90;;;;;;5054220;28;20511;-82
2021/05/05 08:31:35;;;;;;;8.60;3.60;;;6.70;99.90;;;;;;5053921;28;20454;-83
2021/05/05 08:34:03;;;;;;;8.50;3.37;;;7.20;99.90;;;;;;5053594;28;20514;-83
2021/05/05 08:36:51;;;;;;;9.40;3.70;;;7.60;99.90;;;;;;5052620;28;20858;-81
2021/05/05 08:39:19;;;;;;;10.30;3.50;;;7.90;99.90;;;;;;5054007;28;20859;-80
2021/05/05 08:41:50;;;;;;;12.20;3.17;;;8.20;94.20;;;;;;5053647;28;20451;-80
2021/05/05 08:44:23;;;;;;;10.20;3.03;;;8.60;89.30;;;;;;5054957;28;20449;-81
2021/05/05 08:46:50;;;;;;;9.80;2.47;;;8.60;71.70;;;;;;5054768;28;20573;-81
2021/05/05 08:49:19;;;;;;;10.03;2.23;;;8.70;74.00;;;;;;5054842;28;20508;-81
2021/05/05 08:51:47;;;;;;;10.30;2.07;;;9.00;58.70;;;;;;5053502;28;20462;-80
2021/05/05 08:54:13;;;;;;;14.70;3.37;;;9.00;60.80;;;;;;5054513;28;20453;-80
2021/05/05 08:56:43;;;;;;;12.77;3.43;;;9.60;61.60;;;;;;5054476;28;20452;-81
2021/05/05 08:59:12;;;;;;;13.90;2.90;;;9.60;55.30;;;;;;5057039;28;20494;-79
2021/05/05 09:01:42;;;;;;;15.63;3.27;;;9.90;50.10;;;;;;5054184;28;20518;-81
2021/05/05 09:04:43;;;;;;;13.90;2.20;;;9.40;42.00;;;;;;5054176;28;20486;-81
2021/05/05 09:07:29;;;;;;;17.00;3.37;;;10.00;36.40;;;;;;5050830;28;20489;-81
2021/05/05 09:10:14;;;;;;;12.07;2.17;;;10.00;35.20;;;;;;5073345;28;20791;-82
2021/05/05 09:12:47;;;;;;;14.27;2.10;;;9.60;34.70;;;;;;5053994;28;20503;-82
2021/05/05 09:15:28;;;;;;;13.00;2.23;;;9.50;33.30;;;;;;5054169;28;20884;-82
2021/05/05 09:17:58;;;;;;;13.27;2.50;;;9.60;35.30;;;;;;5054391;28;20785;-82
2021/05/05 09:20:27;;;;;;;11.33;2.03;;;9.70;28.20;;;;;;5058108;28;20447;-82
2021/05/05 09:23:03;;;;;;;14.23;2.00;;;10.40;27.20;;;;;;5072635;28;20485;-82
2021/05/05 09:25:43;;;;;;;12.30;1.83;;;10.30;23.10;;;;;;5069478;28;20985;-81
2021/05/05 09:28:27;;;;;;;16.00;2.73;;;9.50;20.30;;;;;;5054002;28;20458;-81
2021/05/05 09:31:10;;;;;;;14.90;2.53;;;9.30;25.40;;;;;;5060643;28;20463;-80
2021/05/05 09:33:39;;;;;;;10.90;2.17;;;9.40;27.30;;;;;;5073980;28;20849;-81
2021/05/05 09:36:23;;;;;;;;;;;;;;;;;;;;;
2021/05/05 09:38:52;;;;;;;17.33;2.70;;;10.50;24.40;;;;;;5071423;28;20444;-81
2021/05/05 09:41:53;;;;;;;;;;;;;;;;;;;;;
2021/05/05 09:44:19;;;;;;;11.17;1.70;;;10.70;20.30;;;;;;5073807;28;20446;-81
2021/05/05 09:47:06;;;;;;;15.70;2.17;;;11.00;18.10;;;;;;5070826;28;20497;-81
2021/05/05 09:49:41;;;;;;;16.23;2.57;;;10.70;18.40;;;;;;5051673;28;20565;-81
2021/05/05 09:52:12;;;;;;;12.80;2.60;;;10.30;14.90;;;;;;5050979;28;20493;-81
2021/05/05 09:54:41;;;;;;;11.60;2.00;;;10.40;14.30;;;;;;5055302;28;20446;-81
2021/05/05 09:57:32;;;;;;;14.03;3.27;;;10.70;13.00;;;;;;5072329;28;21491;-81
2021/05/05 10:00:10;;;;;;;12.50;1.67;;;10.40;17.10;;;;;;5066244;28;20451;-81
2021/05/05 10:06:41;;;;;;;11.60;2.10;;;10.50;13.10;;;;;;4928740;28;20912;-83
2021/05/05 10:33:47;;;;;;;11.87;1.53;;;11.00;8.90;;;;;;4798179;29;20469;-82
2021/05/05 10:37:07;;;;;;;20.20;2.07;;;10.50;7.10;;;;;;4864310;29;20465;-82
2021/05/05 10:39:50;;;;;;;12.73;2.20;;;10.40;9.20;;;;;;4841023;29;20467;-81
2021/05/05 10:43:15;;;;;;;11.80;1.87;;;10.30;8.70;;;;;;4902099;28;20454;-83
2021/05/05 10:53:27;;;;;;;11.17;1.40;;;11.80;9.40;;;;;;4865640;29;20817;-82
2021/05/05 11:05:59;;;;;;;15.70;2.33;;;12.00;3.60;;;;;;4861512;29;20815;-82
2021/05/05 11:08:53;;;;;;;;;;;;;;;;;;;;;
2021/05/05 11:12:08;;;;;;;;;;;;;;;;;;;;;
2021/05/05 11:14:59;;;;;;;13.10;1.73;;;11.80;1.00;;;;;;4908553;29;20483;-82
2021/05/05 11:18:16;;;;;;;;;;;;;;;;;;;;;
2021/05/05 11:34:12;;;;;;;;;;;;;;;;;;;;;
2021/05/05 12:20:30;;;;;;;18.63;1.60;;;13.50;1.00;;;;;;4862802;29;20213;-83
2021/05/05 12:23:15;;;;;;;16.40;3.40;;;12.50;1.00;;;;;;4961900;28;20453;-82
2021/05/05 12:25:55;;;;;;;16.80;6.63;;;10.20;7.50;;;;;;4993745;28;20562;-82
2021/05/05 12:28:46;;;;;;;13.67;2.30;;;9.50;13.00;;;;;;5031925;28;20454;-83
2021/05/05 12:32:10;;;;;;;;;;;;;;;;;;;;;
2021/05/05 13:42:42;;;;;;;;;;;;;;;;;;;;;
2021/05/05 13:45:36;;;;;;;15.63;2.73;;;10.60;9.50;;;;;;6252177;22;21133;-82
2021/05/05 13:48:43;;;;;;;11.87;1.97;;;11.10;5.80;;;;;;6315989;22;20421;-83
2021/05/05 14:01:34;;;;;;;13.00;1.93;;;12.00;6.40;;;;;;5915405;24;20433;-83
2021/05/05 14:08:00;;;;;;;16.13;1.93;;;10.30;11.10;;;;;;6008303;23;20416;-82
2021/05/05 14:41:32;;;;;;;16.37;1.30;;;14.30;1.00;;;;;;6032926;23;20448;-85
2021/05/05 15:35:35;;;;;;;15.67;1.93;;;12.80;1.00;;;;;;6122689;23;20477;-83
2021/05/05 16:15:22;;;;;;;;;;;;;;;;;;;;;
2021/05/05 16:48:04;;;;;;;11.00;1.23;;;12.90;1.00;;;;;;5837691;24;20533;-81
2021/05/05 18:17:12;;;;;;;10.80;1.40;;;10.50;1.00;;;;;;6151836;23;20184;-84
2021/05/05 18:20:13;;;;;;;11.00;2.07;;;10.50;1.00;;;;;;6170695;23;20758;-83
2021/05/05 18:34:35;;;;;;;14.13;2.00;;;9.70;1.00;;;;;;6295512;22;20398;-83
2021/05/05 18:37:06;;;;;;;11.33;1.70;;;9.50;1.00;;;;;;6284022;22;20795;-83
2021/05/05 18:39:39;;;;;;;8.83;1.27;;;9.40;1.00;;;;;;6285171;22;20393;-83
2021/05/05 18:42:46;;;;;;;;;;;;;;;;;;;;;
2021/05/05 19:15:38;;;;;;;8.17;1.90;;;6.40;1.00;;;;;;6238550;22;20411;-83
2021/05/05 19:21:38;;;;;;;;;;;;;;;;;;;;;
2021/05/05 23:10:38;;;;;;;52.60;49.77;;;3.70;99.90;;;;;;5053226;28;20509;-83
2021/05/05 23:25:25;;;;;;;61.23;58.10;;;3.90;99.90;;;;;;5070354;28;20461;-83
2021/05/05 23:28:00;;;;;;;58.73;55.23;;;4.00;99.90;;;;;;5072303;28;20968;-83
2021/05/05 23:30:51;;;;;;;65.90;62.60;;;4.20;99.90;;;;;;5072640;28;20553;-83
2021/05/05 23:34:01;;;;;;;67.93;64.47;;;4.20;99.90;;;;;;5072592;28;20507;-83
2021/05/05 23:39:52;;;;;;;60.67;57.30;;;4.30;99.90;;;;;;5028486;28;21209;-83
